Disclaimer

Please do not use the information listed here in-flight or in-navigation, as they are not provided to us by the airports but are provided by volunteers, so they might be outdated.

Search


Regions


Airport information page

Radio informations:
TUMBES APP/TWR - 118.7 MHz

Airport informations:
Latitude: 03° 33' 09.10" S
Longitude: 080° 22' 52.88" W
Elevation: 115 feet - 35 meters
Operating hours: Remarks
Operating agency: Civil government, landing fees and diplomatic clearance may be required
Timezone: UTC-5
Fuel: N/A

Runway information:
14/32 - 8202 x 148 feet< - >2500 x 45 meters

Recent METARs:
SPME 190300Z 28006KT 250V330 9999 BKN012 24/20 Q1011 RMK BIRD HAZARD RWY 32/14 PP000
SPME 190300Z 28006KT 250V330 9999 BKN012 24/20 Q1011 RMK BIRD HAZARD RWY 32/14 PP000
SPME 190300Z 28006KT 250V330 9999 BKN012 24/20 Q1011 RMK BIRD HAZARD RWY 32/14 PP000

Airport on the map: